Elmwood, North Carolina
Current Conditions -  °F | °C
As of 1:15 PM on Saturday 25 Oct 2014 (Local Time) from KSVH Reporting Station
Clear Clear  
Wind Chill: 68°   Ceiling: Unl
Heat Index: 68°   Visibility: 10mi
Dew Point: 38°   Wind: 5mph
Humidity: 33%   Direction: 200°SSW
Pressure: 30"   Gusts: NA
Location:  35.8306°N, 80.9003°W
Report Text: KSVH 251715Z AUTO 20004KT 10SM CLR 20/04 A3000 RMK AO2 T02010035
Loading
Personal Weather Stations






























Interactive Weather Map
Tropical Storm Tracking
New forecast layout! Learn more

10-Day Weather Forecast

Advertisements
Track Severe Weather on mobile